BEL3KK EBBR-LEMD
Flight info
| Callsign | BEL3KK |
|---|---|
| Flight time | 1h 54m |
| Altitude | 19000 |
| Route | CIV1X CIV N872 LESDO/N0441F320 DCT KOVIN/N0441F330 DCT DUCRA UM728 RESMI UN857 DISAK DCT ARKIP DCT ARNAV DCT LMG DCT UVELI DCT OSMOB DCT ARVID DCT PPN DCT NOLSA DCT ALEPO DCT VASUM DCT BANEV BANEV4D |
| Aircraft | A319/M-SDE3FGHIRWY/LB1 |
Departure
| Time | 2026-05-07 10:03 |
|---|---|
| Airport | Brussels Airport (EBBR) |
Arrival
| Time | 2026-05-07 11:57 |
|---|---|
| Airport | Adolfo Suárez Madrid–Barajas Airport (LEMD) |
| Time | Latitude | Longitude | Altitude | Speed | Heading |
|---|---|---|---|---|---|
| 2026-05-07 09:32 | 50.90449 | 4.48730 | 118 ft | 0 kts | 155° |
| 2026-05-07 09:55 | 50.90465 | 4.48719 | 116 ft | 4 kts | 155° |
| 2026-05-07 09:55 | 50.90489 | 4.48700 | 116 ft | 4 kts | 153° |
| 2026-05-07 09:55 | 50.90512 | 4.48679 | 116 ft | 4 kts | 136° |
| 2026-05-07 09:56 | 50.90522 | 4.48652 | 116 ft | 1 kts | 66° |
| 2026-05-07 09:56 | 50.90522 | 4.48651 | 117 ft | 0 kts | 65° |
| 2026-05-07 09:58 | 50.90530 | 4.48679 | 116 ft | 5 kts | 65° |
| 2026-05-07 09:59 | 50.90555 | 4.48764 | 120 ft | 12 kts | 65° |
| 2026-05-07 09:59 | 50.90593 | 4.48896 | 119 ft | 14 kts | 65° |
| 2026-05-07 09:59 | 50.90634 | 4.49038 | 117 ft | 14 kts | 65° |
| 2026-05-07 09:59 | 50.90675 | 4.49181 | 119 ft | 14 kts | 65° |
| 2026-05-07 10:00 | 50.90716 | 4.49320 | 119 ft | 14 kts | 65° |
| 2026-05-07 10:00 | 50.90756 | 4.49457 | 121 ft | 14 kts | 65° |
| 2026-05-07 10:00 | 50.90795 | 4.49592 | 122 ft | 14 kts | 63° |
| 2026-05-07 10:00 | 50.90879 | 4.49647 | 124 ft | 14 kts | 13° |
| 2026-05-07 10:01 | 50.90965 | 4.49649 | 121 ft | 13 kts | 321° |
| 2026-05-07 10:01 | 50.90991 | 4.49505 | 118 ft | 14 kts | 289° |
| 2026-05-07 10:01 | 50.90992 | 4.49375 | 119 ft | 10 kts | 244° |
| 2026-05-07 10:01 | 50.90987 | 4.49356 | 119 ft | 0 kts | 245° |
| 2026-05-07 10:02 | 50.90986 | 4.49355 | 119 ft | 2 kts | 245° |
| 2026-05-07 10:02 | 50.90869 | 4.48955 | 120 ft | 79 kts | 245° |
| 2026-05-07 10:02 | 50.90547 | 4.47836 | 120 ft | 142 kts | 245° |
| 2026-05-07 10:02 | 50.90070 | 4.46206 | 337 ft | 171 kts | 245° |
| 2026-05-07 10:03 | 50.89607 | 4.44517 | 1113 ft | 167 kts | 248° |
| 2026-05-07 10:03 | 50.89165 | 4.42811 | 1829 ft | 167 kts | 248° |
| 2026-05-07 10:03 | 50.88920 | 4.41612 | 2129 ft | 180 kts | 254° |
| 2026-05-07 10:03 | 50.88441 | 4.38894 | 2669 ft | 206 kts | 255° |
| 2026-05-07 10:04 | 50.87896 | 4.36700 | 3087 ft | 225 kts | 234° |
| 2026-05-07 10:04 | 50.86633 | 4.35031 | 3513 ft | 250 kts | 207° |
| 2026-05-07 10:04 | 50.85026 | 4.33747 | 4222 ft | 264 kts | 206° |
| 2026-05-07 10:04 | 50.83368 | 4.32438 | 5166 ft | 268 kts | 206° |
| 2026-05-07 10:05 | 50.82255 | 4.31560 | 5828 ft | 269 kts | 207° |
| 2026-05-07 10:05 | 50.80558 | 4.30218 | 6856 ft | 270 kts | 207° |
| 2026-05-07 10:05 | 50.78908 | 4.28840 | 7746 ft | 273 kts | 213° |
| 2026-05-07 10:05 | 50.77437 | 4.26916 | 8616 ft | 277 kts | 227° |
| 2026-05-07 10:06 | 50.76259 | 4.24483 | 9495 ft | 281 kts | 235° |
| 2026-05-07 10:06 | 50.75116 | 4.21945 | 10293 ft | 288 kts | 235° |
| 2026-05-07 10:06 | 50.73899 | 4.19260 | 10584 ft | 312 kts | 234° |
| 2026-05-07 10:06 | 50.72593 | 4.16395 | 10993 ft | 329 kts | 234° |
| 2026-05-07 10:07 | 50.71239 | 4.13435 | 11703 ft | 335 kts | 234° |
| 2026-05-07 10:07 | 50.69868 | 4.10440 | 12481 ft | 339 kts | 234° |
| 2026-05-07 10:07 | 50.68479 | 4.07408 | 13255 ft | 342 kts | 234° |
| 2026-05-07 10:07 | 50.67076 | 4.04350 | 14005 ft | 346 kts | 234° |
| 2026-05-07 10:08 | 50.65658 | 4.01263 | 14679 ft | 349 kts | 234° |
| 2026-05-07 10:08 | 50.64229 | 3.98148 | 15343 ft | 353 kts | 234° |
| 2026-05-07 10:08 | 50.62784 | 3.94998 | 16019 ft | 356 kts | 234° |
| 2026-05-07 10:08 | 50.61327 | 3.91825 | 16685 ft | 359 kts | 234° |
| 2026-05-07 10:09 | 50.59854 | 3.88624 | 17353 ft | 363 kts | 234° |
| 2026-05-07 10:09 | 50.58262 | 3.85524 | 18012 ft | 367 kts | 226° |
| 2026-05-07 10:09 | 50.56306 | 3.82929 | 18616 ft | 371 kts | 215° |
| 2026-05-07 10:09 | 50.54033 | 3.80970 | 19177 ft | 375 kts | 204° |
| 2026-05-07 10:10 | 50.51625 | 3.79341 | 19752 ft | 378 kts | 204° |
| 2026-05-07 10:10 | 50.49198 | 3.77695 | 20329 ft | 381 kts | 204° |
| 2026-05-07 10:10 | 50.46749 | 3.76029 | 20899 ft | 385 kts | 204° |
| 2026-05-07 10:10 | 50.44286 | 3.74352 | 21468 ft | 388 kts | 204° |
| 2026-05-07 10:11 | 50.41832 | 3.72677 | 22020 ft | 391 kts | 204° |
| 2026-05-07 10:11 | 50.39324 | 3.70965 | 22579 ft | 395 kts | 204° |
| 2026-05-07 10:11 | 50.36798 | 3.69246 | 23108 ft | 398 kts | 204° |
| 2026-05-07 10:11 | 50.34247 | 3.67516 | 23629 ft | 401 kts | 204° |
| 2026-05-07 10:12 | 50.31676 | 3.65777 | 24060 ft | 404 kts | 204° |
| 2026-05-07 10:12 | 50.29090 | 3.64030 | 24495 ft | 406 kts | 204° |
| 2026-05-07 10:12 | 50.26482 | 3.62268 | 24932 ft | 409 kts | 204° |
| 2026-05-07 10:12 | 50.23866 | 3.60506 | 25370 ft | 411 kts | 204° |
| 2026-05-07 10:13 | 50.21222 | 3.58734 | 25792 ft | 413 kts | 204° |
| 2026-05-07 10:13 | 50.18577 | 3.56959 | 26203 ft | 416 kts | 204° |
| 2026-05-07 10:13 | 50.15910 | 3.55167 | 26626 ft | 418 kts | 204° |
| 2026-05-07 10:13 | 50.13229 | 3.53368 | 27034 ft | 421 kts | 204° |
| 2026-05-07 10:14 | 50.10534 | 3.51561 | 27444 ft | 423 kts | 204° |
| 2026-05-07 10:14 | 50.07820 | 3.49742 | 27852 ft | 425 kts | 204° |
| 2026-05-07 10:14 | 50.05087 | 3.47916 | 28253 ft | 428 kts | 204° |
| 2026-05-07 10:14 | 50.02342 | 3.46087 | 28652 ft | 430 kts | 204° |
| 2026-05-07 10:15 | 49.99586 | 3.44254 | 29029 ft | 432 kts | 204° |
| 2026-05-07 10:15 | 49.96812 | 3.42410 | 29402 ft | 435 kts | 204° |
| 2026-05-07 10:15 | 49.94016 | 3.40551 | 29770 ft | 437 kts | 204° |
| 2026-05-07 10:15 | 49.91209 | 3.38682 | 30123 ft | 440 kts | 204° |
| 2026-05-07 10:16 | 49.88392 | 3.36807 | 30433 ft | 442 kts | 204° |
| 2026-05-07 10:16 | 49.85596 | 3.34952 | 30727 ft | 444 kts | 204° |
| 2026-05-07 10:16 | 49.82717 | 3.33050 | 31026 ft | 446 kts | 204° |
| 2026-05-07 10:16 | 49.79895 | 3.31190 | 31319 ft | 447 kts | 204° |
| 2026-05-07 10:17 | 49.77035 | 3.29306 | 31743 ft | 446 kts | 204° |
| 2026-05-07 10:17 | 49.74182 | 3.27428 | 32190 ft | 444 kts | 204° |
| 2026-05-07 10:17 | 49.71341 | 3.25557 | 32600 ft | 443 kts | 204° |
| 2026-05-07 10:17 | 49.68509 | 3.23691 | 33004 ft | 442 kts | 204° |
| 2026-05-07 10:18 | 49.65678 | 3.21827 | 33409 ft | 441 kts | 204° |
| 2026-05-07 10:18 | 49.62853 | 3.19969 | 33812 ft | 441 kts | 204° |
| 2026-05-07 10:18 | 49.60034 | 3.18119 | 34193 ft | 440 kts | 204° |
| 2026-05-07 10:18 | 49.57221 | 3.16279 | 34510 ft | 440 kts | 204° |
| 2026-05-07 10:19 | 49.54401 | 3.14438 | 34817 ft | 439 kts | 204° |
| 2026-05-07 10:19 | 49.51587 | 3.12606 | 35118 ft | 439 kts | 204° |
| 2026-05-07 10:19 | 49.48792 | 3.10677 | 35388 ft | 439 kts | 209° |
| 2026-05-07 10:19 | 49.46199 | 3.08226 | 35650 ft | 438 kts | 214° |
| 2026-05-07 10:20 | 49.43654 | 3.05614 | 35904 ft | 439 kts | 214° |
| 2026-05-07 10:20 | 49.41116 | 3.03020 | 36051 ft | 439 kts | 214° |
| 2026-05-07 10:20 | 49.38578 | 3.00441 | 36072 ft | 437 kts | 214° |
| 2026-05-07 10:21 | 49.33510 | 2.95321 | 36074 ft | 435 kts | 214° |
| 2026-05-07 10:21 | 49.28444 | 2.90215 | 36076 ft | 436 kts | 214° |
| 2026-05-07 10:22 | 49.23613 | 2.85349 | 36079 ft | 436 kts | 214° |
| 2026-05-07 10:22 | 49.18970 | 2.80671 | 36078 ft | 435 kts | 214° |
| 2026-05-07 10:23 | 49.13907 | 2.75586 | 36080 ft | 435 kts | 214° |
| 2026-05-07 10:23 | 49.08842 | 2.70514 | 36079 ft | 435 kts | 214° |
| 2026-05-07 10:24 | 49.03825 | 2.65505 | 36084 ft | 435 kts | 214° |
| 2026-05-07 10:24 | 48.98701 | 2.60409 | 36079 ft | 435 kts | 214° |
| 2026-05-07 10:25 | 48.93629 | 2.55373 | 36080 ft | 435 kts | 214° |
| 2026-05-07 10:25 | 48.88556 | 2.50336 | 36078 ft | 436 kts | 214° |
| 2026-05-07 10:26 | 48.83482 | 2.45314 | 36079 ft | 436 kts | 213° |
| 2026-05-07 10:26 | 48.78395 | 2.40303 | 36079 ft | 435 kts | 213° |
| 2026-05-07 10:27 | 48.73319 | 2.35297 | 36080 ft | 435 kts | 214° |
| 2026-05-07 10:27 | 48.68235 | 2.30299 | 36078 ft | 435 kts | 213° |
| 2026-05-07 10:28 | 48.63145 | 2.25324 | 36073 ft | 436 kts | 213° |
| 2026-05-07 10:28 | 48.58001 | 2.20500 | 36072 ft | 436 kts | 207° |
| 2026-05-07 10:29 | 48.52236 | 2.17700 | 36060 ft | 437 kts | 193° |
| 2026-05-07 10:29 | 48.46281 | 2.15787 | 36058 ft | 438 kts | 193° |
| 2026-05-07 10:30 | 48.37335 | 2.12898 | 36048 ft | 438 kts | 193° |
| 2026-05-07 10:30 | 48.31410 | 2.10992 | 36044 ft | 438 kts | 192° |
| 2026-05-07 10:31 | 48.25326 | 2.10650 | 36045 ft | 441 kts | 173° |
| 2026-05-07 10:31 | 48.19252 | 2.11946 | 36050 ft | 441 kts | 173° |
| 2026-05-07 10:32 | 48.13149 | 2.12916 | 36058 ft | 440 kts | 182° |
| 2026-05-07 10:32 | 48.07082 | 2.11956 | 36063 ft | 439 kts | 188° |
| 2026-05-07 10:33 | 48.01024 | 2.10787 | 36070 ft | 439 kts | 188° |
| 2026-05-07 10:33 | 47.94958 | 2.09635 | 36076 ft | 439 kts | 188° |
| 2026-05-07 10:34 | 47.88895 | 2.08479 | 36083 ft | 440 kts | 188° |
| 2026-05-07 10:34 | 47.82824 | 2.07328 | 36082 ft | 440 kts | 188° |
| 2026-05-07 10:35 | 47.76751 | 2.06182 | 36080 ft | 440 kts | 188° |
| 2026-05-07 10:35 | 47.70717 | 2.05048 | 36068 ft | 440 kts | 188° |
| 2026-05-07 10:36 | 47.64648 | 2.03860 | 36062 ft | 439 kts | 192° |
| 2026-05-07 10:36 | 47.58866 | 2.01038 | 36054 ft | 438 kts | 202° |
| 2026-05-07 10:37 | 47.53196 | 1.97733 | 36054 ft | 438 kts | 202° |
| 2026-05-07 10:37 | 47.47514 | 1.94470 | 36054 ft | 438 kts | 202° |
| 2026-05-07 10:38 | 47.41833 | 1.91197 | 36053 ft | 438 kts | 202° |
| 2026-05-07 10:38 | 47.36156 | 1.87916 | 36055 ft | 438 kts | 202° |
| 2026-05-07 10:39 | 47.30517 | 1.84674 | 36056 ft | 438 kts | 202° |
| 2026-05-07 10:39 | 47.24834 | 1.81413 | 36055 ft | 438 kts | 202° |
| 2026-05-07 10:40 | 47.19149 | 1.78167 | 36055 ft | 438 kts | 202° |
| 2026-05-07 10:40 | 47.13460 | 1.74953 | 36050 ft | 438 kts | 202° |
| 2026-05-07 10:41 | 47.07756 | 1.71747 | 36051 ft | 438 kts | 202° |
| 2026-05-07 10:41 | 47.02051 | 1.68551 | 36054 ft | 439 kts | 202° |
| 2026-05-07 10:42 | 46.96625 | 1.65515 | 36057 ft | 439 kts | 202° |
| 2026-05-07 10:42 | 46.90918 | 1.62318 | 36057 ft | 438 kts | 202° |
| 2026-05-07 10:43 | 46.85205 | 1.59134 | 36061 ft | 438 kts | 202° |
| 2026-05-07 10:43 | 46.79494 | 1.55960 | 36057 ft | 439 kts | 202° |
| 2026-05-07 10:44 | 46.73791 | 1.52790 | 36057 ft | 439 kts | 202° |
| 2026-05-07 10:44 | 46.68124 | 1.49651 | 36052 ft | 438 kts | 201° |
| 2026-05-07 10:45 | 46.62422 | 1.46499 | 36042 ft | 438 kts | 202° |
| 2026-05-07 10:45 | 46.56718 | 1.43347 | 36033 ft | 438 kts | 202° |
| 2026-05-07 10:46 | 46.51017 | 1.40209 | 36036 ft | 438 kts | 201° |
| 2026-05-07 10:46 | 46.45314 | 1.37081 | 36033 ft | 438 kts | 201° |
| 2026-05-07 10:47 | 46.39601 | 1.33953 | 36033 ft | 438 kts | 202° |
| 2026-05-07 10:47 | 46.33891 | 1.30830 | 36034 ft | 439 kts | 202° |
| 2026-05-07 10:48 | 46.28185 | 1.27717 | 36031 ft | 439 kts | 202° |
| 2026-05-07 10:48 | 46.22463 | 1.24594 | 36032 ft | 439 kts | 202° |
| 2026-05-07 10:49 | 46.16777 | 1.21509 | 36031 ft | 439 kts | 201° |
| 2026-05-07 10:49 | 46.11045 | 1.18414 | 36030 ft | 439 kts | 201° |
| 2026-05-07 10:50 | 46.05323 | 1.15330 | 36035 ft | 439 kts | 201° |
| 2026-05-07 10:50 | 45.99601 | 1.12241 | 36029 ft | 439 kts | 201° |
| 2026-05-07 10:51 | 45.93872 | 1.09151 | 36034 ft | 439 kts | 201° |
| 2026-05-07 10:51 | 45.88144 | 1.06065 | 36031 ft | 439 kts | 201° |
| 2026-05-07 10:52 | 45.83407 | 1.03462 | 36027 ft | 438 kts | 206° |
| 2026-05-07 10:52 | 45.78351 | 0.98681 | 36024 ft | 436 kts | 221° |
| 2026-05-07 10:53 | 45.73708 | 0.93091 | 36021 ft | 436 kts | 220° |
| 2026-05-07 10:53 | 45.69044 | 0.87517 | 36012 ft | 437 kts | 220° |
| 2026-05-07 10:54 | 45.64379 | 0.81956 | 36012 ft | 437 kts | 220° |
| 2026-05-07 10:54 | 45.59709 | 0.76407 | 36016 ft | 437 kts | 220° |
| 2026-05-07 10:55 | 45.55030 | 0.70856 | 36020 ft | 437 kts | 220° |
| 2026-05-07 10:55 | 45.50353 | 0.65314 | 36023 ft | 437 kts | 220° |
| 2026-05-07 10:56 | 45.45675 | 0.59777 | 36031 ft | 437 kts | 221° |
| 2026-05-07 10:56 | 45.41023 | 0.54280 | 36033 ft | 437 kts | 220° |
| 2026-05-07 10:57 | 45.36347 | 0.48769 | 36031 ft | 437 kts | 220° |
| 2026-05-07 10:57 | 45.31658 | 0.43270 | 36030 ft | 437 kts | 220° |
| 2026-05-07 10:58 | 45.26965 | 0.37776 | 36028 ft | 437 kts | 220° |
| 2026-05-07 10:58 | 45.22283 | 0.32297 | 36037 ft | 437 kts | 220° |
| 2026-05-07 10:59 | 45.17593 | 0.26819 | 36027 ft | 436 kts | 220° |
| 2026-05-07 10:59 | 45.12900 | 0.21359 | 36024 ft | 437 kts | 220° |
| 2026-05-07 11:00 | 45.08205 | 0.15908 | 36023 ft | 437 kts | 220° |
| 2026-05-07 11:00 | 45.03501 | 0.10461 | 36020 ft | 437 kts | 220° |
| 2026-05-07 11:01 | 44.98798 | 0.05015 | 36025 ft | 437 kts | 220° |
| 2026-05-07 11:01 | 44.94097 | -0.00411 | 36020 ft | 437 kts | 220° |
| 2026-05-07 11:02 | 44.89394 | -0.05827 | 36021 ft | 436 kts | 220° |
| 2026-05-07 11:02 | 44.84686 | -0.11245 | 36024 ft | 436 kts | 220° |
| 2026-05-07 11:03 | 44.79980 | -0.16643 | 36020 ft | 436 kts | 220° |
| 2026-05-07 11:03 | 44.75269 | -0.22025 | 36024 ft | 436 kts | 220° |
| 2026-05-07 11:04 | 44.70569 | -0.27385 | 36023 ft | 435 kts | 220° |
| 2026-05-07 11:04 | 44.65878 | -0.32698 | 36019 ft | 436 kts | 218° |
| 2026-05-07 11:05 | 44.60629 | -0.36994 | 36018 ft | 437 kts | 210° |
| 2026-05-07 11:05 | 44.55242 | -0.40952 | 36011 ft | 437 kts | 210° |
| 2026-05-07 11:06 | 44.49861 | -0.44904 | 36008 ft | 437 kts | 210° |
| 2026-05-07 11:06 | 44.44476 | -0.48847 | 36011 ft | 437 kts | 210° |
| 2026-05-07 11:07 | 44.39083 | -0.52779 | 36003 ft | 436 kts | 210° |
| 2026-05-07 11:07 | 44.33696 | -0.56710 | 36009 ft | 436 kts | 210° |
| 2026-05-07 11:08 | 44.28355 | -0.60603 | 36002 ft | 436 kts | 210° |
| 2026-05-07 11:08 | 44.22978 | -0.64514 | 36006 ft | 436 kts | 210° |
| 2026-05-07 11:09 | 44.17601 | -0.68418 | 36005 ft | 436 kts | 210° |
| 2026-05-07 11:09 | 44.12219 | -0.72309 | 36004 ft | 435 kts | 210° |
| 2026-05-07 11:10 | 44.06835 | -0.76195 | 35995 ft | 435 kts | 210° |
| 2026-05-07 11:10 | 44.01461 | -0.80068 | 36000 ft | 435 kts | 210° |
| 2026-05-07 11:11 | 43.96119 | -0.83911 | 35997 ft | 435 kts | 210° |
| 2026-05-07 11:11 | 43.90711 | -0.87798 | 35999 ft | 434 kts | 210° |
| 2026-05-07 11:12 | 43.85382 | -0.91615 | 36001 ft | 434 kts | 209° |
| 2026-05-07 11:12 | 43.79980 | -0.95469 | 36004 ft | 434 kts | 209° |
| 2026-05-07 11:13 | 43.74653 | -0.99274 | 36010 ft | 433 kts | 209° |
| 2026-05-07 11:13 | 43.69297 | -1.03092 | 36009 ft | 433 kts | 209° |
| 2026-05-07 11:14 | 43.63940 | -1.06899 | 36007 ft | 432 kts | 209° |
| 2026-05-07 11:14 | 43.58590 | -1.10688 | 36005 ft | 432 kts | 209° |
| 2026-05-07 11:15 | 43.53244 | -1.14486 | 36000 ft | 432 kts | 209° |
| 2026-05-07 11:15 | 43.47905 | -1.18268 | 35998 ft | 431 kts | 209° |
| 2026-05-07 11:16 | 43.42562 | -1.22029 | 35979 ft | 431 kts | 209° |
| 2026-05-07 11:16 | 43.37222 | -1.25774 | 35981 ft | 431 kts | 209° |
| 2026-05-07 11:17 | 43.31886 | -1.29516 | 35977 ft | 430 kts | 209° |
| 2026-05-07 11:17 | 43.26592 | -1.33223 | 35977 ft | 430 kts | 209° |
| 2026-05-07 11:18 | 43.21256 | -1.36953 | 35973 ft | 429 kts | 209° |
| 2026-05-07 11:18 | 43.15936 | -1.40666 | 35981 ft | 429 kts | 209° |
| 2026-05-07 11:19 | 43.10615 | -1.44376 | 35972 ft | 429 kts | 209° |
| 2026-05-07 11:19 | 43.05300 | -1.48066 | 35973 ft | 428 kts | 209° |
| 2026-05-07 11:20 | 43.00019 | -1.51749 | 35898 ft | 424 kts | 207° |
| 2026-05-07 11:20 | 42.94764 | -1.55416 | 35980 ft | 422 kts | 207° |
| 2026-05-07 11:21 | 42.89541 | -1.59033 | 35990 ft | 420 kts | 207° |
| 2026-05-07 11:21 | 42.84334 | -1.62635 | 35996 ft | 419 kts | 207° |
| 2026-05-07 11:22 | 42.79142 | -1.66218 | 35993 ft | 418 kts | 207° |
| 2026-05-07 11:22 | 42.73952 | -1.69797 | 35990 ft | 417 kts | 207° |
| 2026-05-07 11:23 | 42.68763 | -1.73331 | 35986 ft | 417 kts | 206° |
| 2026-05-07 11:23 | 42.63565 | -1.76810 | 35983 ft | 417 kts | 206° |
| 2026-05-07 11:24 | 42.58353 | -1.80293 | 35977 ft | 416 kts | 206° |
| 2026-05-07 11:24 | 42.53197 | -1.83752 | 35971 ft | 416 kts | 206° |
| 2026-05-07 11:25 | 42.48008 | -1.87233 | 35973 ft | 416 kts | 206° |
| 2026-05-07 11:25 | 42.42819 | -1.90705 | 35969 ft | 416 kts | 206° |
| 2026-05-07 11:26 | 42.37629 | -1.94160 | 35960 ft | 416 kts | 206° |
| 2026-05-07 11:26 | 42.32439 | -1.97606 | 35961 ft | 416 kts | 206° |
| 2026-05-07 11:27 | 42.27243 | -2.01064 | 35962 ft | 415 kts | 206° |
| 2026-05-07 11:27 | 42.22057 | -2.04510 | 35960 ft | 415 kts | 206° |
| 2026-05-07 11:28 | 42.16900 | -2.07924 | 35956 ft | 415 kts | 206° |
| 2026-05-07 11:28 | 42.11713 | -2.11340 | 35958 ft | 415 kts | 206° |
| 2026-05-07 11:29 | 42.06522 | -2.14758 | 35958 ft | 415 kts | 206° |
| 2026-05-07 11:29 | 42.01329 | -2.18167 | 35966 ft | 415 kts | 206° |
| 2026-05-07 11:30 | 41.96146 | -2.21576 | 35968 ft | 414 kts | 206° |
| 2026-05-07 11:30 | 41.90972 | -2.24982 | 35961 ft | 414 kts | 206° |
| 2026-05-07 11:31 | 41.85798 | -2.28375 | 35962 ft | 413 kts | 206° |
| 2026-05-07 11:31 | 41.80629 | -2.31748 | 35962 ft | 413 kts | 206° |
| 2026-05-07 11:32 | 41.72874 | -2.36796 | 35628 ft | 412 kts | 206° |
| 2026-05-07 11:32 | 41.70295 | -2.38469 | 35381 ft | 411 kts | 206° |
| 2026-05-07 11:33 | 41.67725 | -2.40137 | 35130 ft | 410 kts | 206° |
| 2026-05-07 11:33 | 41.65158 | -2.41808 | 34895 ft | 409 kts | 206° |
| 2026-05-07 11:33 | 41.62634 | -2.43448 | 34665 ft | 409 kts | 206° |
| 2026-05-07 11:33 | 41.60076 | -2.45108 | 34420 ft | 408 kts | 205° |
| 2026-05-07 11:34 | 41.57517 | -2.46763 | 33863 ft | 409 kts | 205° |
| 2026-05-07 11:34 | 41.54945 | -2.48423 | 32847 ft | 413 kts | 205° |
| 2026-05-07 11:34 | 41.52344 | -2.50101 | 31934 ft | 416 kts | 205° |
| 2026-05-07 11:34 | 41.49740 | -2.51783 | 31307 ft | 413 kts | 205° |
| 2026-05-07 11:35 | 41.47166 | -2.53447 | 30756 ft | 408 kts | 205° |
| 2026-05-07 11:35 | 41.44630 | -2.55084 | 30172 ft | 404 kts | 205° |
| 2026-05-07 11:35 | 41.42114 | -2.56707 | 29552 ft | 400 kts | 205° |
| 2026-05-07 11:35 | 41.39620 | -2.58309 | 28987 ft | 394 kts | 205° |
| 2026-05-07 11:36 | 41.37194 | -2.59865 | 28455 ft | 389 kts | 205° |
| 2026-05-07 11:36 | 41.34753 | -2.61358 | 27907 ft | 384 kts | 200° |
| 2026-05-07 11:36 | 41.32195 | -2.62330 | 27374 ft | 380 kts | 191° |
| 2026-05-07 11:36 | 41.29542 | -2.62677 | 26838 ft | 377 kts | 181° |
| 2026-05-07 11:37 | 41.26964 | -2.62497 | 26323 ft | 374 kts | 177° |
| 2026-05-07 11:37 | 41.24416 | -2.62613 | 26138 ft | 361 kts | 191° |
| 2026-05-07 11:37 | 41.22062 | -2.63593 | 26061 ft | 350 kts | 201° |
| 2026-05-07 11:37 | 41.19787 | -2.64778 | 25983 ft | 352 kts | 201° |
| 2026-05-07 11:38 | 41.17505 | -2.65974 | 25903 ft | 352 kts | 201° |
| 2026-05-07 11:38 | 41.15225 | -2.67175 | 25824 ft | 352 kts | 201° |
| 2026-05-07 11:38 | 41.12951 | -2.68373 | 25750 ft | 352 kts | 201° |
| 2026-05-07 11:38 | 41.10670 | -2.69573 | 25648 ft | 351 kts | 201° |
| 2026-05-07 11:39 | 41.08400 | -2.70766 | 25280 ft | 350 kts | 201° |
| 2026-05-07 11:39 | 41.06137 | -2.71955 | 24883 ft | 349 kts | 201° |
| 2026-05-07 11:39 | 41.03890 | -2.73136 | 24450 ft | 347 kts | 201° |
| 2026-05-07 11:39 | 41.02404 | -2.73919 | 24174 ft | 346 kts | 201° |
| 2026-05-07 11:40 | 41.00172 | -2.75092 | 23750 ft | 345 kts | 201° |
| 2026-05-07 11:40 | 40.97951 | -2.76258 | 23299 ft | 343 kts | 201° |
| 2026-05-07 11:40 | 40.95738 | -2.77418 | 22881 ft | 341 kts | 201° |
| 2026-05-07 11:40 | 40.93534 | -2.78570 | 22479 ft | 340 kts | 201° |
| 2026-05-07 11:41 | 40.91346 | -2.79713 | 22077 ft | 338 kts | 201° |
| 2026-05-07 11:41 | 40.89160 | -2.80854 | 21675 ft | 336 kts | 201° |
| 2026-05-07 11:41 | 40.86986 | -2.81987 | 21277 ft | 335 kts | 201° |
| 2026-05-07 11:41 | 40.84819 | -2.83114 | 20874 ft | 333 kts | 201° |
| 2026-05-07 11:42 | 40.82669 | -2.84234 | 20465 ft | 332 kts | 201° |
| 2026-05-07 11:42 | 40.80527 | -2.85351 | 20044 ft | 330 kts | 201° |
| 2026-05-07 11:42 | 40.78392 | -2.86463 | 19624 ft | 329 kts | 201° |
| 2026-05-07 11:42 | 40.76266 | -2.87569 | 19206 ft | 328 kts | 201° |
| 2026-05-07 11:43 | 40.74141 | -2.88676 | 18783 ft | 327 kts | 201° |
| 2026-05-07 11:43 | 40.72027 | -2.89776 | 18358 ft | 326 kts | 201° |
| 2026-05-07 11:43 | 40.69946 | -2.90858 | 17896 ft | 325 kts | 201° |
| 2026-05-07 11:43 | 40.67845 | -2.91952 | 17462 ft | 323 kts | 201° |
| 2026-05-07 11:44 | 40.65739 | -2.93050 | 17039 ft | 321 kts | 201° |
| 2026-05-07 11:44 | 40.63687 | -2.94113 | 16626 ft | 319 kts | 201° |
| 2026-05-07 11:44 | 40.61631 | -2.95173 | 16217 ft | 317 kts | 201° |
| 2026-05-07 11:44 | 40.59584 | -2.96229 | 15816 ft | 316 kts | 201° |
| 2026-05-07 11:45 | 40.57545 | -2.97283 | 15458 ft | 312 kts | 201° |
| 2026-05-07 11:45 | 40.55569 | -2.98303 | 15174 ft | 299 kts | 201° |
| 2026-05-07 11:45 | 40.53668 | -2.99284 | 14967 ft | 284 kts | 201° |
| 2026-05-07 11:45 | 40.51865 | -3.00215 | 14610 ft | 277 kts | 201° |
| 2026-05-07 11:46 | 40.50072 | -3.01141 | 14190 ft | 273 kts | 201° |
| 2026-05-07 11:46 | 40.48324 | -3.02043 | 13817 ft | 268 kts | 201° |
| 2026-05-07 11:46 | 40.46592 | -3.02938 | 13400 ft | 266 kts | 201° |
| 2026-05-07 11:46 | 40.44869 | -3.03825 | 12859 ft | 265 kts | 201° |
| 2026-05-07 11:47 | 40.43146 | -3.04711 | 12452 ft | 267 kts | 201° |
| 2026-05-07 11:47 | 40.41415 | -3.05603 | 12100 ft | 267 kts | 201° |
| 2026-05-07 11:47 | 40.39692 | -3.06488 | 11762 ft | 267 kts | 201° |
| 2026-05-07 11:47 | 40.37977 | -3.07372 | 11559 ft | 261 kts | 201° |
| 2026-05-07 11:48 | 40.36304 | -3.08234 | 11117 ft | 257 kts | 201° |
| 2026-05-07 11:48 | 40.34645 | -3.09085 | 10634 ft | 255 kts | 201° |
| 2026-05-07 11:48 | 40.32994 | -3.09928 | 10415 ft | 254 kts | 201° |
| 2026-05-07 11:48 | 40.31344 | -3.10773 | 10324 ft | 255 kts | 201° |
| 2026-05-07 11:49 | 40.29713 | -3.11608 | 10210 ft | 251 kts | 201° |
| 2026-05-07 11:49 | 40.28220 | -3.12686 | 10096 ft | 243 kts | 219° |
| 2026-05-07 11:49 | 40.27128 | -3.14406 | 9989 ft | 245 kts | 240° |
| 2026-05-07 11:49 | 40.26591 | -3.16516 | 9576 ft | 253 kts | 261° |
| 2026-05-07 11:50 | 40.26717 | -3.18806 | 9256 ft | 255 kts | 279° |
| 2026-05-07 11:50 | 40.27107 | -3.21078 | 8931 ft | 252 kts | 280° |
| 2026-05-07 11:50 | 40.27491 | -3.23276 | 8532 ft | 247 kts | 280° |
| 2026-05-07 11:50 | 40.27877 | -3.25498 | 7905 ft | 253 kts | 280° |
| 2026-05-07 11:51 | 40.28269 | -3.27759 | 7313 ft | 255 kts | 280° |
| 2026-05-07 11:51 | 40.28661 | -3.30006 | 6919 ft | 250 kts | 281° |
| 2026-05-07 11:51 | 40.29043 | -3.32197 | 6552 ft | 244 kts | 280° |
| 2026-05-07 11:51 | 40.29414 | -3.34342 | 6225 ft | 237 kts | 280° |
| 2026-05-07 11:52 | 40.29767 | -3.36386 | 6063 ft | 223 kts | 280° |
| 2026-05-07 11:52 | 40.30159 | -3.38286 | 5941 ft | 212 kts | 291° |
| 2026-05-07 11:52 | 40.30981 | -3.39851 | 5696 ft | 209 kts | 315° |
| 2026-05-07 11:52 | 40.32110 | -3.41031 | 5425 ft | 207 kts | 321° |
| 2026-05-07 11:53 | 40.33249 | -3.42176 | 5163 ft | 206 kts | 321° |
| 2026-05-07 11:53 | 40.34378 | -3.43313 | 4893 ft | 203 kts | 321° |
| 2026-05-07 11:53 | 40.35490 | -3.44436 | 4626 ft | 202 kts | 321° |
| 2026-05-07 11:53 | 40.36600 | -3.45557 | 4353 ft | 200 kts | 321° |
| 2026-05-07 11:54 | 40.37671 | -3.46641 | 4087 ft | 193 kts | 321° |
| 2026-05-07 11:54 | 40.38721 | -3.47702 | 3833 ft | 185 kts | 322° |
| 2026-05-07 11:54 | 40.39732 | -3.48725 | 3585 ft | 183 kts | 321° |
| 2026-05-07 11:54 | 40.40710 | -3.49715 | 3363 ft | 174 kts | 321° |
| 2026-05-07 11:55 | 40.41617 | -3.50633 | 3130 ft | 157 kts | 322° |
| 2026-05-07 11:55 | 40.42449 | -3.51476 | 2904 ft | 147 kts | 322° |
| 2026-05-07 11:55 | 40.43246 | -3.52285 | 2712 ft | 142 kts | 322° |
| 2026-05-07 11:55 | 40.44018 | -3.53066 | 2525 ft | 138 kts | 323° |
| 2026-05-07 11:56 | 40.44775 | -3.53834 | 2356 ft | 137 kts | 323° |
| 2026-05-07 11:56 | 40.45528 | -3.54599 | 2183 ft | 137 kts | 322° |
| 2026-05-07 11:56 | 40.46281 | -3.55360 | 2006 ft | 137 kts | 323° |
| 2026-05-07 11:56 | 40.46997 | -3.56084 | 1979 ft | 116 kts | 322° |
| 2026-05-07 11:57 | 40.47494 | -3.56589 | 1993 ft | 58 kts | 322° |
| 2026-05-07 11:57 | 40.47691 | -3.56801 | 1996 ft | 30 kts | 313° |
| 2026-05-07 11:57 | 40.47787 | -3.56995 | 1998 ft | 17 kts | 295° |
| 2026-05-07 11:57 | 40.47786 | -3.57105 | 2000 ft | 12 kts | 221° |
| 2026-05-07 11:58 | 40.47711 | -3.57079 | 1997 ft | 13 kts | 142° |
| 2026-05-07 11:58 | 40.47628 | -3.56995 | 1995 ft | 17 kts | 143° |
| 2026-05-07 11:58 | 40.47530 | -3.56895 | 1992 ft | 18 kts | 142° |
| 2026-05-07 11:58 | 40.47434 | -3.56798 | 1990 ft | 16 kts | 142° |
| 2026-05-07 11:59 | 40.47357 | -3.56807 | 1988 ft | 13 kts | 233° |
| 2026-05-07 11:59 | 40.47307 | -3.56892 | 1987 ft | 11 kts | 224° |
| 2026-05-07 11:59 | 40.47276 | -3.56966 | 1987 ft | 6 kts | 263° |
| 2026-05-07 11:59 | 40.47272 | -3.57007 | 1988 ft | 3 kts | 263° |
| 2026-05-07 12:00 | 40.47271 | -3.57022 | 1988 ft | 0 kts | 263° |
| 2026-05-07 12:00 | 40.47271 | -3.57023 | 1988 ft | 0 kts | 263° |